Aviation Digital Data Service (ADDS)

Output produced by METARs form (2237 UTC 22 August 2017)
found at http://www.aviationweather.gov/adds/metars/
 
LWOH 222230Z 34008KT 9999 FEW035 13/04 Q1018
TAF LWOH 222030Z 2221/2321 36008KT CAVOK
       
LWSK 222230Z 17002KT CAVOK 12/07 Q1018 NOSIG
TAF LWSK 222030Z 2221/2321 VRB02KT CAVOK 
     TEMPO 2309/2311 36012KT FEW050
       
LWOH 222230Z 34008KT 9999 FEW035 13/04 Q1018
TAF LWOH 222030Z 2221/2321 36008KT CAVOK
       
LWSK 222230Z 17002KT CAVOK 12/07 Q1018 NOSIG
TAF LWSK 222030Z 2221/2321 VRB02KT CAVOK 
     TEMPO 2309/2311 36012KT FEW050